sensor_id;sensor_type;location;lat;lon;timestamp;P1;durP1;ratioP1;P2;durP2;ratioP2
27728;SDS011;15126;42.186;24.340;2022-09-28T00:00:38;5.50;;;4.33;;
27728;SDS011;15126;42.186;24.340;2022-09-28T00:03:06;5.53;;;4.83;;
27728;SDS011;15126;42.186;24.340;2022-09-28T00:05:32;5.97;;;4.73;;
27728;SDS011;15126;42.186;24.340;2022-09-28T00:07:59;6.60;;;4.03;;
27728;SDS011;15126;42.186;24.340;2022-09-28T00:10:26;4.43;;;4.13;;
27728;SDS011;15126;42.186;24.340;2022-09-28T00:12:53;9.23;;;4.23;;
27728;SDS011;15126;42.186;24.340;2022-09-28T00:15:20;4.60;;;4.20;;
27728;SDS011;15126;42.186;24.340;2022-09-28T00:17:50;5.00;;;4.33;;
27728;SDS011;15126;42.186;24.340;2022-09-28T00:20:17;9.77;;;4.10;;
27728;SDS011;15126;42.186;24.340;2022-09-28T00:22:44;4.70;;;4.30;;
27728;SDS011;15126;42.186;24.340;2022-09-28T00:25:11;3.93;;;3.63;;
27728;SDS011;15126;42.186;24.340;2022-09-28T00:27:38;5.47;;;4.70;;
27728;SDS011;15126;42.186;24.340;2022-09-28T00:30:05;7.27;;;4.67;;
27728;SDS011;15126;42.186;24.340;2022-09-28T00:32:33;4.97;;;4.50;;
27728;SDS011;15126;42.186;24.340;2022-09-28T00:35:03;5.40;;;5.00;;
27728;SDS011;15126;42.186;24.340;2022-09-28T00:37:30;5.10;;;4.70;;
27728;SDS011;15126;42.186;24.340;2022-09-28T00:39:57;4.80;;;4.30;;
27728;SDS011;15126;42.186;24.340;2022-09-28T00:42:25;5.23;;;4.03;;
27728;SDS011;15126;42.186;24.340;2022-09-28T00:44:52;5.40;;;4.90;;
27728;SDS011;15126;42.186;24.340;2022-09-28T00:47:29;4.47;;;4.03;;
27728;SDS011;15126;42.186;24.340;2022-09-28T00:50:17;5.10;;;4.63;;
27728;SDS011;15126;42.186;24.340;2022-09-28T00:52:49;8.77;;;4.80;;
27728;SDS011;15126;42.186;24.340;2022-09-28T00:55:25;4.57;;;4.10;;
27728;SDS011;15126;42.186;24.340;2022-09-28T00:57:57;5.43;;;4.57;;
27728;SDS011;15126;42.186;24.340;2022-09-28T01:00:28;4.53;;;4.13;;
27728;SDS011;15126;42.186;24.340;2022-09-28T01:02:56;4.70;;;4.10;;
27728;SDS011;15126;42.186;24.340;2022-09-28T01:05:25;6.30;;;4.63;;
27728;SDS011;15126;42.186;24.340;2022-09-28T01:07:52;4.77;;;4.37;;
27728;SDS011;15126;42.186;24.340;2022-09-28T01:10:21;4.30;;;3.93;;
27728;SDS011;15126;42.186;24.340;2022-09-28T01:12:48;5.50;;;4.90;;
27728;SDS011;15126;42.186;24.340;2022-09-28T01:15:15;6.27;;;3.93;;
27728;SDS011;15126;42.186;24.340;2022-09-28T01:17:55;8.87;;;4.60;;
27728;SDS011;15126;42.186;24.340;2022-09-28T01:26:47;5.47;;;4.60;;
27728;SDS011;15126;42.186;24.340;2022-09-28T01:29:21;5.43;;;4.50;;
27728;SDS011;15126;42.186;24.340;2022-09-28T01:32:11;5.40;;;4.90;;
27728;SDS011;15126;42.186;24.340;2022-09-28T01:34:46;5.00;;;4.53;;
27728;SDS011;15126;42.186;24.340;2022-09-28T01:37:22;5.13;;;4.73;;
27728;SDS011;15126;42.186;24.340;2022-09-28T01:40:06;4.97;;;4.50;;
27728;SDS011;15126;42.186;24.340;2022-09-28T01:42:37;6.63;;;4.67;;
27728;SDS011;15126;42.186;24.340;2022-09-28T01:45:08;5.67;;;5.03;;
27728;SDS011;15126;42.186;24.340;2022-09-28T01:47:40;5.80;;;5.13;;
27728;SDS011;15126;42.186;24.340;2022-09-28T01:50:09;5.40;;;5.00;;
27728;SDS011;15126;42.186;24.340;2022-09-28T01:52:40;5.77;;;5.27;;
27728;SDS011;15126;42.186;24.340;2022-09-28T01:55:15;6.00;;;5.00;;
27728;SDS011;15126;42.186;24.340;2022-09-28T01:57:49;6.00;;;5.50;;
27728;SDS011;15126;42.186;24.340;2022-09-28T02:00:20;6.17;;;5.47;;
27728;SDS011;15126;42.186;24.340;2022-09-28T02:02:50;7.73;;;5.47;;
27728;SDS011;15126;42.186;24.340;2022-09-28T02:05:21;7.93;;;5.40;;
27728;SDS011;15126;42.186;24.340;2022-09-28T02:07:54;7.10;;;5.80;;
27728;SDS011;15126;42.186;24.340;2022-09-28T02:10:27;5.97;;;5.37;;
27728;SDS011;15126;42.186;24.340;2022-09-28T02:13:00;10.00;;;5.67;;
27728;SDS011;15126;42.186;24.340;2022-09-28T02:15:32;7.13;;;6.23;;
27728;SDS011;15126;42.186;24.340;2022-09-28T02:18:05;8.33;;;5.53;;
27728;SDS011;15126;42.186;24.340;2022-09-28T02:20:33;6.93;;;5.63;;
27728;SDS011;15126;42.186;24.340;2022-09-28T02:23:01;8.27;;;6.10;;
27728;SDS011;15126;42.186;24.340;2022-09-28T02:25:33;11.97;;;6.33;;
27728;SDS011;15126;42.186;24.340;2022-09-28T02:28:07;8.23;;;6.50;;
27728;SDS011;15126;42.186;24.340;2022-09-28T02:30:36;7.83;;;6.40;;
27728;SDS011;15126;42.186;24.340;2022-09-28T02:33:08;7.97;;;6.60;;
27728;SDS011;15126;42.186;24.340;2022-09-28T02:35:38;7.00;;;6.40;;
27728;SDS011;15126;42.186;24.340;2022-09-28T02:38:07;9.27;;;7.00;;
27728;SDS011;15126;42.186;24.340;2022-09-28T02:40:33;7.90;;;7.13;;
27728;SDS011;15126;42.186;24.340;2022-09-28T02:43:07;9.90;;;7.17;;
27728;SDS011;15126;42.186;24.340;2022-09-28T02:45:50;9.07;;;7.47;;
27728;SDS011;15126;42.186;24.340;2022-09-28T02:48:34;10.13;;;7.87;;
27728;SDS011;15126;42.186;24.340;2022-09-28T02:51:17;8.67;;;7.87;;
27728;SDS011;15126;42.186;24.340;2022-09-28T02:54:04;10.43;;;7.90;;
27728;SDS011;15126;42.186;24.340;2022-09-28T02:56:46;7.60;;;5.90;;
27728;SDS011;15126;42.186;24.340;2022-09-28T02:59:30;7.67;;;6.33;;
27728;SDS011;15126;42.186;24.340;2022-09-28T03:02:07;6.63;;;5.97;;
27728;SDS011;15126;42.186;24.340;2022-09-28T03:04:43;7.83;;;5.63;;
27728;SDS011;15126;42.186;24.340;2022-09-28T03:07:21;6.57;;;5.97;;
27728;SDS011;15126;42.186;24.340;2022-09-28T03:09:53;10.33;;;5.87;;
27728;SDS011;15126;42.186;24.340;2022-09-28T03:12:24;7.50;;;5.47;;
27728;SDS011;15126;42.186;24.340;2022-09-28T03:15:11;5.80;;;5.40;;
27728;SDS011;15126;42.186;24.340;2022-09-28T03:17:39;6.37;;;5.77;;
27728;SDS011;15126;42.186;24.340;2022-09-28T03:20:08;6.83;;;5.60;;
27728;SDS011;15126;42.186;24.340;2022-09-28T03:22:36;8.80;;;7.90;;
27728;SDS011;15126;42.186;24.340;2022-09-28T03:25:03;11.63;;;8.17;;
27728;SDS011;15126;42.186;24.340;2022-09-28T03:27:30;5.93;;;5.37;;
27728;SDS011;15126;42.186;24.340;2022-09-28T03:29:57;6.23;;;5.73;;
27728;SDS011;15126;42.186;24.340;2022-09-28T03:32:25;6.43;;;5.67;;
27728;SDS011;15126;42.186;24.340;2022-09-28T03:34:52;10.90;;;6.00;;
27728;SDS011;15126;42.186;24.340;2022-09-28T03:37:19;7.40;;;6.77;;
27728;SDS011;15126;42.186;24.340;2022-09-28T03:39:47;7.70;;;5.43;;
27728;SDS011;15126;42.186;24.340;2022-09-28T03:42:14;9.43;;;6.50;;
27728;SDS011;15126;42.186;24.340;2022-09-28T03:44:41;7.80;;;5.77;;
27728;SDS011;15126;42.186;24.340;2022-09-28T03:47:07;8.50;;;7.53;;
27728;SDS011;15126;42.186;24.340;2022-09-28T03:49:36;10.67;;;7.93;;
27728;SDS011;15126;42.186;24.340;2022-09-28T03:52:03;13.90;;;7.87;;
27728;SDS011;15126;42.186;24.340;2022-09-28T03:54:30;9.43;;;8.10;;
27728;SDS011;15126;42.186;24.340;2022-09-28T03:56:56;8.53;;;7.73;;
27728;SDS011;15126;42.186;24.340;2022-09-28T03:59:23;10.00;;;7.97;;
27728;SDS011;15126;42.186;24.340;2022-09-28T04:01:50;13.00;;;8.23;;
27728;SDS011;15126;42.186;24.340;2022-09-28T04:04:17;9.80;;;7.50;;
27728;SDS011;15126;42.186;24.340;2022-09-28T04:06:45;13.63;;;7.57;;
27728;SDS011;15126;42.186;24.340;2022-09-28T04:09:12;8.93;;;8.13;;
27728;SDS011;15126;42.186;24.340;2022-09-28T04:11:40;9.70;;;8.37;;
27728;SDS011;15126;42.186;24.340;2022-09-28T04:14:07;9.97;;;7.40;;
27728;SDS011;15126;42.186;24.340;2022-09-28T04:16:33;9.67;;;8.27;;
27728;SDS011;15126;42.186;24.340;2022-09-28T04:19:00;11.13;;;10.03;;
27728;SDS011;15126;42.186;24.340;2022-09-28T04:21:28;13.13;;;9.40;;
27728;SDS011;15126;42.186;24.340;2022-09-28T04:23:56;17.30;;;11.27;;
27728;SDS011;15126;42.186;24.340;2022-09-28T04:26:24;12.70;;;10.30;;
27728;SDS011;15126;42.186;24.340;2022-09-28T04:28:52;10.37;;;9.37;;
27728;SDS011;15126;42.186;24.340;2022-09-28T04:31:37;11.00;;;9.00;;
27728;SDS011;15126;42.186;24.340;2022-09-28T04:34:06;13.17;;;9.03;;
27728;SDS011;15126;42.186;24.340;2022-09-28T04:36:33;10.07;;;9.07;;
27728;SDS011;15126;42.186;24.340;2022-09-28T04:39:01;15.17;;;8.60;;
27728;SDS011;15126;42.186;24.340;2022-09-28T04:41:29;11.07;;;8.40;;
27728;SDS011;15126;42.186;24.340;2022-09-28T04:43:55;11.20;;;8.60;;
27728;SDS011;15126;42.186;24.340;2022-09-28T04:46:22;15.37;;;8.90;;
27728;SDS011;15126;42.186;24.340;2022-09-28T04:48:49;9.43;;;8.20;;
27728;SDS011;15126;42.186;24.340;2022-09-28T04:51:16;14.63;;;8.63;;
27728;SDS011;15126;42.186;24.340;2022-09-28T04:53:42;10.50;;;8.17;;
27728;SDS011;15126;42.186;24.340;2022-09-28T04:56:11;10.27;;;8.13;;
27728;SDS011;15126;42.186;24.340;2022-09-28T04:58:39;15.13;;;8.20;;
27728;SDS011;15126;42.186;24.340;2022-09-28T05:01:07;10.73;;;7.67;;
27728;SDS011;15126;42.186;24.340;2022-09-28T05:03:36;9.00;;;8.07;;
27728;SDS011;15126;42.186;24.340;2022-09-28T05:06:03;12.07;;;8.50;;
27728;SDS011;15126;42.186;24.340;2022-09-28T05:08:31;13.73;;;7.90;;
27728;SDS011;15126;42.186;24.340;2022-09-28T05:10:59;12.83;;;8.03;;
27728;SDS011;15126;42.186;24.340;2022-09-28T05:13:29;15.00;;;7.67;;
27728;SDS011;15126;42.186;24.340;2022-09-28T05:15:57;11.27;;;9.33;;
27728;SDS011;15126;42.186;24.340;2022-09-28T05:18:24;13.07;;;8.27;;
27728;SDS011;15126;42.186;24.340;2022-09-28T05:20:51;11.37;;;8.77;;
27728;SDS011;15126;42.186;24.340;2022-09-28T05:23:17;9.70;;;8.53;;
27728;SDS011;15126;42.186;24.340;2022-09-28T05:25:44;10.87;;;8.17;;
27728;SDS011;15126;42.186;24.340;2022-09-28T05:28:11;11.10;;;7.67;;
27728;SDS011;15126;42.186;24.340;2022-09-28T05:30:39;9.23;;;8.33;;
27728;SDS011;15126;42.186;24.340;2022-09-28T05:33:06;7.80;;;7.07;;
27728;SDS011;15126;42.186;24.340;2022-09-28T05:35:33;8.17;;;6.80;;
27728;SDS011;15126;42.186;24.340;2022-09-28T05:38:01;8.37;;;7.40;;
27728;SDS011;15126;42.186;24.340;2022-09-28T05:40:29;12.37;;;7.77;;
27728;SDS011;15126;42.186;24.340;2022-09-28T05:42:59;10.40;;;7.93;;
27728;SDS011;15126;42.186;24.340;2022-09-28T05:45:27;14.80;;;7.43;;
27728;SDS011;15126;42.186;24.340;2022-09-28T05:47:56;10.53;;;7.17;;
27728;SDS011;15126;42.186;24.340;2022-09-28T05:50:23;11.77;;;7.80;;
27728;SDS011;15126;42.186;24.340;2022-09-28T05:52:57;10.30;;;7.90;;
27728;SDS011;15126;42.186;24.340;2022-09-28T05:55:24;7.50;;;6.70;;
27728;SDS011;15126;42.186;24.340;2022-09-28T05:57:51;9.67;;;6.77;;
27728;SDS011;15126;42.186;24.340;2022-09-28T06:00:18;10.47;;;6.03;;
27728;SDS011;15126;42.186;24.340;2022-09-28T06:02:53;9.67;;;6.23;;
27728;SDS011;15126;42.186;24.340;2022-09-28T06:05:22;8.17;;;6.17;;
27728;SDS011;15126;42.186;24.340;2022-09-28T06:07:49;10.67;;;6.87;;
27728;SDS011;15126;42.186;24.340;2022-09-28T06:10:16;9.37;;;6.67;;
27728;SDS011;15126;42.186;24.340;2022-09-28T06:12:43;8.90;;;5.57;;
27728;SDS011;15126;42.186;24.340;2022-09-28T06:15:12;7.90;;;5.70;;
27728;SDS011;15126;42.186;24.340;2022-09-28T06:17:39;6.20;;;5.57;;
27728;SDS011;15126;42.186;24.340;2022-09-28T06:20:09;5.93;;;5.30;;
27728;SDS011;15126;42.186;24.340;2022-09-28T06:22:36;11.90;;;6.03;;
27728;SDS011;15126;42.186;24.340;2022-09-28T06:25:04;9.27;;;5.90;;
27728;SDS011;15126;42.186;24.340;2022-09-28T06:27:32;10.93;;;5.53;;
27728;SDS011;15126;42.186;24.340;2022-09-28T06:30:00;12.10;;;6.77;;
27728;SDS011;15126;42.186;24.340;2022-09-28T06:32:27;10.70;;;5.37;;
27728;SDS011;15126;42.186;24.340;2022-09-28T06:34:54;8.13;;;5.63;;
27728;SDS011;15126;42.186;24.340;2022-09-28T06:37:22;6.03;;;5.13;;
27728;SDS011;15126;42.186;24.340;2022-09-28T06:39:50;6.23;;;5.17;;
27728;SDS011;15126;42.186;24.340;2022-09-28T06:42:18;7.70;;;5.43;;
27728;SDS011;15126;42.186;24.340;2022-09-28T06:44:44;8.43;;;6.30;;
27728;SDS011;15126;42.186;24.340;2022-09-28T06:47:11;6.60;;;5.70;;
27728;SDS011;15126;42.186;24.340;2022-09-28T06:49:39;7.37;;;6.53;;
27728;SDS011;15126;42.186;24.340;2022-09-28T06:52:05;8.53;;;6.03;;
27728;SDS011;15126;42.186;24.340;2022-09-28T06:54:33;8.33;;;6.00;;
27728;SDS011;15126;42.186;24.340;2022-09-28T06:57:00;7.87;;;6.50;;
27728;SDS011;15126;42.186;24.340;2022-09-28T06:59:27;8.43;;;7.70;;
27728;SDS011;15126;42.186;24.340;2022-09-28T07:01:55;7.30;;;6.60;;
27728;SDS011;15126;42.186;24.340;2022-09-28T07:04:22;12.60;;;7.10;;
27728;SDS011;15126;42.186;24.340;2022-09-28T07:06:49;13.60;;;7.07;;
27728;SDS011;15126;42.186;24.340;2022-09-28T07:09:16;12.70;;;7.10;;
27728;SDS011;15126;42.186;24.340;2022-09-28T07:11:44;16.83;;;6.87;;
27728;SDS011;15126;42.186;24.340;2022-09-28T07:14:11;8.60;;;6.50;;
27728;SDS011;15126;42.186;24.340;2022-09-28T07:16:38;11.03;;;7.43;;
27728;SDS011;15126;42.186;24.340;2022-09-28T07:19:05;8.70;;;7.00;;
27728;SDS011;15126;42.186;24.340;2022-09-28T07:21:32;9.67;;;6.60;;
27728;SDS011;15126;42.186;24.340;2022-09-28T07:23:58;12.03;;;7.67;;
27728;SDS011;15126;42.186;24.340;2022-09-28T07:26:25;17.40;;;6.97;;
27728;SDS011;15126;42.186;24.340;2022-09-28T07:28:53;9.47;;;5.70;;
27728;SDS011;15126;42.186;24.340;2022-09-28T07:31:20;14.07;;;7.73;;
27728;SDS011;15126;42.186;24.340;2022-09-28T07:33:49;17.97;;;8.37;;
27728;SDS011;15126;42.186;24.340;2022-09-28T07:36:18;20.40;;;7.63;;
27728;SDS011;15126;42.186;24.340;2022-09-28T07:38:46;32.17;;;10.17;;
27728;SDS011;15126;42.186;24.340;2022-09-28T07:41:13;6.97;;;5.57;;
27728;SDS011;15126;42.186;24.340;2022-09-28T07:43:41;10.40;;;5.83;;
27728;SDS011;15126;42.186;24.340;2022-09-28T07:46:09;10.70;;;5.80;;
27728;SDS011;15126;42.186;24.340;2022-09-28T07:48:38;7.17;;;5.97;;
27728;SDS011;15126;42.186;24.340;2022-09-28T07:51:06;7.27;;;6.00;;
27728;SDS011;15126;42.186;24.340;2022-09-28T07:53:33;6.40;;;4.83;;
27728;SDS011;15126;42.186;24.340;2022-09-28T07:56:01;7.87;;;5.53;;
27728;SDS011;15126;42.186;24.340;2022-09-28T07:58:33;8.20;;;6.23;;
27728;SDS011;15126;42.186;24.340;2022-09-28T08:01:04;10.13;;;5.17;;
27728;SDS011;15126;42.186;24.340;2022-09-28T08:03:34;8.97;;;5.60;;
27728;SDS011;15126;42.186;24.340;2022-09-28T08:06:02;10.13;;;5.90;;
27728;SDS011;15126;42.186;24.340;2022-09-28T08:08:32;8.93;;;5.80;;
27728;SDS011;15126;42.186;24.340;2022-09-28T08:11:00;5.93;;;5.43;;
27728;SDS011;15126;42.186;24.340;2022-09-28T08:13:27;6.93;;;5.73;;
27728;SDS011;15126;42.186;24.340;2022-09-28T08:15:58;6.83;;;4.93;;
27728;SDS011;15126;42.186;24.340;2022-09-28T08:18:26;5.80;;;5.30;;
27728;SDS011;15126;42.186;24.340;2022-09-28T08:20:54;6.17;;;5.40;;
27728;SDS011;15126;42.186;24.340;2022-09-28T08:23:40;9.97;;;5.03;;
27728;SDS011;15126;42.186;24.340;2022-09-28T08:26:07;6.70;;;5.43;;
27728;SDS011;15126;42.186;24.340;2022-09-28T08:28:34;5.37;;;4.43;;
27728;SDS011;15126;42.186;24.340;2022-09-28T08:31:04;6.90;;;4.90;;
27728;SDS011;15126;42.186;24.340;2022-09-28T08:33:32;8.67;;;6.30;;
27728;SDS011;15126;42.186;24.340;2022-09-28T08:36:01;12.33;;;6.17;;
27728;SDS011;15126;42.186;24.340;2022-09-28T08:38:29;8.03;;;4.10;;
27728;SDS011;15126;42.186;24.340;2022-09-28T08:41:00;6.87;;;4.40;;
27728;SDS011;15126;42.186;24.340;2022-09-28T08:43:47;7.20;;;4.13;;
27728;SDS011;15126;42.186;24.340;2022-09-28T08:46:34;9.57;;;5.30;;
27728;SDS011;15126;42.186;24.340;2022-09-28T08:49:06;4.67;;;4.27;;
27728;SDS011;15126;42.186;24.340;2022-09-28T08:51:41;7.47;;;4.70;;
27728;SDS011;15126;42.186;24.340;2022-09-28T08:54:17;5.23;;;4.47;;
27728;SDS011;15126;42.186;24.340;2022-09-28T08:56:51;9.60;;;4.97;;
27728;SDS011;15126;42.186;24.340;2022-09-28T08:59:21;11.33;;;4.47;;
27728;SDS011;15126;42.186;24.340;2022-09-28T09:01:51;8.17;;;5.67;;
27728;SDS011;15126;42.186;24.340;2022-09-28T09:04:23;8.87;;;4.87;;
27728;SDS011;15126;42.186;24.340;2022-09-28T09:07:00;6.53;;;4.07;;
27728;SDS011;15126;42.186;24.340;2022-09-28T09:09:40;6.00;;;4.30;;
27728;SDS011;15126;42.186;24.340;2022-09-28T09:12:17;3.80;;;3.50;;
27728;SDS011;15126;42.186;24.340;2022-09-28T09:14:57;6.53;;;3.70;;
27728;SDS011;15126;42.186;24.340;2022-09-28T09:17:36;9.17;;;4.57;;
27728;SDS011;15126;42.186;24.340;2022-09-28T09:20:15;4.13;;;3.83;;
27728;SDS011;15126;42.186;24.340;2022-09-28T09:22:53;8.03;;;4.57;;
27728;SDS011;15126;42.186;24.340;2022-09-28T09:25:25;4.83;;;4.33;;
27728;SDS011;15126;42.186;24.340;2022-09-28T09:28:01;6.70;;;4.87;;
27728;SDS011;15126;42.186;24.340;2022-09-28T09:30:50;7.23;;;3.80;;
27728;SDS011;15126;42.186;24.340;2022-09-28T09:33:36;5.53;;;4.40;;
27728;SDS011;15126;42.186;24.340;2022-09-28T09:36:22;6.53;;;3.93;;
27728;SDS011;15126;42.186;24.340;2022-09-28T09:39:04;8.33;;;4.83;;
27728;SDS011;15126;42.186;24.340;2022-09-28T09:41:48;9.50;;;4.50;;
27728;SDS011;15126;42.186;24.340;2022-09-28T09:44:46;7.70;;;4.53;;
27728;SDS011;15126;42.186;24.340;2022-09-28T09:47:24;7.20;;;4.23;;
27728;SDS011;15126;42.186;24.340;2022-09-28T09:49:58;4.53;;;3.77;;
27728;SDS011;15126;42.186;24.340;2022-09-28T09:52:31;5.03;;;3.53;;
27728;SDS011;15126;42.186;24.340;2022-09-28T09:55:14;4.80;;;3.10;;
27728;SDS011;15126;42.186;24.340;2022-09-28T09:57:47;4.27;;;3.87;;
27728;SDS011;15126;42.186;24.340;2022-09-28T10:00:17;6.60;;;3.80;;
27728;SDS011;15126;42.186;24.340;2022-09-28T10:02:44;5.33;;;3.97;;
27728;SDS011;15126;42.186;24.340;2022-09-28T10:05:15;7.20;;;4.43;;
27728;SDS011;15126;42.186;24.340;2022-09-28T10:07:48;8.43;;;4.70;;
27728;SDS011;15126;42.186;24.340;2022-09-28T10:10:20;7.40;;;4.27;;
27728;SDS011;15126;42.186;24.340;2022-09-28T10:12:51;5.37;;;3.97;;
27728;SDS011;15126;42.186;24.340;2022-09-28T10:15:21;6.40;;;3.70;;
27728;SDS011;15126;42.186;24.340;2022-09-28T10:17:50;4.93;;;3.20;;
27728;SDS011;15126;42.186;24.340;2022-09-28T10:20:18;3.80;;;3.50;;
27728;SDS011;15126;42.186;24.340;2022-09-28T10:22:45;3.73;;;3.40;;
27728;SDS011;15126;42.186;24.340;2022-09-28T10:25:13;19.30;;;14.77;;
27728;SDS011;15126;42.186;24.340;2022-09-28T10:27:41;7.37;;;5.70;;
27728;SDS011;15126;42.186;24.340;2022-09-28T10:30:12;16.00;;;14.00;;
27728;SDS011;15126;42.186;24.340;2022-09-28T10:32:42;51.97;;;40.97;;
27728;SDS011;15126;42.186;24.340;2022-09-28T10:35:12;27.70;;;22.63;;
27728;SDS011;15126;42.186;24.340;2022-09-28T10:37:50;11.93;;;8.83;;
27728;SDS011;15126;42.186;24.340;2022-09-28T10:40:27;6.90;;;4.47;;
27728;SDS011;15126;42.186;24.340;2022-09-28T10:43:00;5.07;;;4.07;;
27728;SDS011;15126;42.186;24.340;2022-09-28T10:45:30;6.80;;;3.77;;
27728;SDS011;15126;42.186;24.340;2022-09-28T10:48:02;8.00;;;3.97;;
27728;SDS011;15126;42.186;24.340;2022-09-28T10:50:31;3.57;;;3.27;;
27728;SDS011;15126;42.186;24.340;2022-09-28T10:53:15;3.97;;;3.10;;
27728;SDS011;15126;42.186;24.340;2022-09-28T10:55:55;3.80;;;3.40;;
27728;SDS011;15126;42.186;24.340;2022-09-28T10:58:26;4.87;;;2.83;;
27728;SDS011;15126;42.186;24.340;2022-09-28T11:00:58;3.23;;;2.93;;
27728;SDS011;15126;42.186;24.340;2022-09-28T11:03:27;5.93;;;3.30;;
27728;SDS011;15126;42.186;24.340;2022-09-28T11:05:55;2.83;;;2.63;;
27728;SDS011;15126;42.186;24.340;2022-09-28T11:08:25;4.83;;;3.50;;
27728;SDS011;15126;42.186;24.340;2022-09-28T11:11:06;5.37;;;2.87;;
27728;SDS011;15126;42.186;24.340;2022-09-28T11:13:40;5.93;;;3.23;;
27728;SDS011;15126;42.186;24.340;2022-09-28T11:16:17;3.63;;;2.73;;
27728;SDS011;15126;42.186;24.340;2022-09-28T11:18:46;6.87;;;3.40;;
27728;SDS011;15126;42.186;24.340;2022-09-28T11:21:14;4.33;;;2.60;;
27728;SDS011;15126;42.186;24.340;2022-09-28T11:23:54;3.40;;;2.13;;
27728;SDS011;15126;42.186;24.340;2022-09-28T11:26:23;5.20;;;3.07;;
27728;SDS011;15126;42.186;24.340;2022-09-28T11:28:51;5.93;;;3.37;;
27728;SDS011;15126;42.186;24.340;2022-09-28T11:31:23;5.70;;;3.30;;
27728;SDS011;15126;42.186;24.340;2022-09-28T11:34:00;4.43;;;2.73;;
27728;SDS011;15126;42.186;24.340;2022-09-28T11:36:32;6.03;;;2.53;;
27728;SDS011;15126;42.186;24.340;2022-09-28T11:39:17;3.27;;;2.87;;
27728;SDS011;15126;42.186;24.340;2022-09-28T11:41:54;6.13;;;2.37;;
27728;SDS011;15126;42.186;24.340;2022-09-28T11:44:36;5.83;;;2.70;;
27728;SDS011;15126;42.186;24.340;2022-09-28T11:50:05;7.77;;;2.57;;
27728;SDS011;15126;42.186;24.340;2022-09-28T11:52:41;10.17;;;2.77;;
27728;SDS011;15126;42.186;24.340;2022-09-28T11:55:17;5.90;;;2.70;;
27728;SDS011;15126;42.186;24.340;2022-09-28T11:57:49;5.47;;;2.73;;
27728;SDS011;15126;42.186;24.340;2022-09-28T12:00:27;7.00;;;2.60;;
27728;SDS011;15126;42.186;24.340;2022-09-28T12:02:57;3.40;;;2.30;;
27728;SDS011;15126;42.186;24.340;2022-09-28T12:05:29;3.93;;;1.73;;
27728;SDS011;15126;42.186;24.340;2022-09-28T12:08:00;3.80;;;2.40;;
27728;SDS011;15126;42.186;24.340;2022-09-28T12:10:34;3.57;;;1.70;;
27728;SDS011;15126;42.186;24.340;2022-09-28T12:13:08;5.97;;;2.63;;
27728;SDS011;15126;42.186;24.340;2022-09-28T12:15:45;6.37;;;2.13;;
27728;SDS011;15126;42.186;24.340;2022-09-28T12:18:17;3.20;;;2.03;;
27728;SDS011;15126;42.186;24.340;2022-09-28T12:20:50;2.60;;;2.07;;
27728;SDS011;15126;42.186;24.340;2022-09-28T12:23:21;7.23;;;2.40;;
27728;SDS011;15126;42.186;24.340;2022-09-28T12:25:52;2.73;;;2.23;;
27728;SDS011;15126;42.186;24.340;2022-09-28T12:28:24;5.57;;;2.30;;
27728;SDS011;15126;42.186;24.340;2022-09-28T12:30:57;3.30;;;2.10;;
27728;SDS011;15126;42.186;24.340;2022-09-28T12:33:34;6.37;;;2.37;;
27728;SDS011;15126;42.186;24.340;2022-09-28T12:36:05;8.40;;;2.40;;
27728;SDS011;15126;42.186;24.340;2022-09-28T12:38:49;2.53;;;2.30;;
27728;SDS011;15126;42.186;24.340;2022-09-28T12:41:30;6.20;;;2.70;;
27728;SDS011;15126;42.186;24.340;2022-09-28T12:47:14;3.27;;;2.60;;
27728;SDS011;15126;42.186;24.340;2022-09-28T12:50:00;5.23;;;3.40;;
27728;SDS011;15126;42.186;24.340;2022-09-28T12:52:38;2.37;;;2.17;;
27728;SDS011;15126;42.186;24.340;2022-09-28T12:55:16;2.50;;;2.30;;
27728;SDS011;15126;42.186;24.340;2022-09-28T12:57:55;3.17;;;2.87;;
27728;SDS011;15126;42.186;24.340;2022-09-28T13:00:25;5.23;;;3.10;;
27728;SDS011;15126;42.186;24.340;2022-09-28T13:03:11;4.37;;;2.67;;
27728;SDS011;15126;42.186;24.340;2022-09-28T13:08:43;4.27;;;2.37;;
27728;SDS011;15126;42.186;24.340;2022-09-28T13:11:21;4.67;;;3.10;;
27728;SDS011;15126;42.186;24.340;2022-09-28T13:14:13;9.67;;;3.97;;
27728;SDS011;15126;42.186;24.340;2022-09-28T13:17:02;8.73;;;3.37;;
27728;SDS011;15126;42.186;24.340;2022-09-28T13:19:42;7.80;;;3.50;;
27728;SDS011;15126;42.186;24.340;2022-09-28T13:22:19;8.23;;;3.73;;
27728;SDS011;15126;42.186;24.340;2022-09-28T13:24:53;8.33;;;3.87;;
27728;SDS011;15126;42.186;24.340;2022-09-28T13:27:27;8.17;;;3.87;;
27728;SDS011;15126;42.186;24.340;2022-09-28T13:29:58;4.10;;;3.70;;
27728;SDS011;15126;42.186;24.340;2022-09-28T13:32:28;10.07;;;3.67;;
27728;SDS011;15126;42.186;24.340;2022-09-28T13:34:57;7.93;;;3.50;;
27728;SDS011;15126;42.186;24.340;2022-09-28T13:37:26;8.47;;;4.30;;
27728;SDS011;15126;42.186;24.340;2022-09-28T13:39:54;9.43;;;4.23;;
27728;SDS011;15126;42.186;24.340;2022-09-28T13:45:32;10.80;;;3.70;;
27728;SDS011;15126;42.186;24.340;2022-09-28T13:48:16;8.47;;;3.83;;
27728;SDS011;15126;42.186;24.340;2022-09-28T13:51:22;7.83;;;3.57;;
27728;SDS011;15126;42.186;24.340;2022-09-28T13:57:12;9.70;;;3.83;;
27728;SDS011;15126;42.186;24.340;2022-09-28T14:00:12;5.53;;;4.00;;
27728;SDS011;15126;42.186;24.340;2022-09-28T14:03:01;11.60;;;3.73;;
27728;SDS011;15126;42.186;24.340;2022-09-28T14:06:05;6.73;;;3.80;;
27728;SDS011;15126;42.186;24.340;2022-09-28T14:09:22;7.70;;;4.47;;
27728;SDS011;15126;42.186;24.340;2022-09-28T14:18:25;14.67;;;4.97;;
27728;SDS011;15126;42.186;24.340;2022-09-28T14:36:23;6.70;;;4.23;;
27728;SDS011;15126;42.186;24.340;2022-09-28T14:39:15;5.20;;;3.43;;
27728;SDS011;15126;42.186;24.340;2022-09-28T14:42:06;12.17;;;4.53;;
27728;SDS011;15126;42.186;24.340;2022-09-28T14:47:36;4.50;;;3.17;;
27728;SDS011;15126;42.186;24.340;2022-09-28T14:50:16;8.20;;;3.10;;
27728;SDS011;15126;42.186;24.340;2022-09-28T14:52:49;8.57;;;3.83;;
27728;SDS011;15126;42.186;24.340;2022-09-28T14:55:19;8.00;;;4.20;;
27728;SDS011;15126;42.186;24.340;2022-09-28T14:57:52;4.93;;;3.87;;
27728;SDS011;15126;42.186;24.340;2022-09-28T15:00:23;6.73;;;3.40;;
27728;SDS011;15126;42.186;24.340;2022-09-28T15:02:53;9.60;;;4.77;;
27728;SDS011;15126;42.186;24.340;2022-09-28T15:05:26;8.53;;;4.43;;
27728;SDS011;15126;42.186;24.340;2022-09-28T15:07:57;16.00;;;5.40;;
27728;SDS011;15126;42.186;24.340;2022-09-28T15:10:25;6.50;;;5.07;;
27728;SDS011;15126;42.186;24.340;2022-09-28T15:12:59;9.53;;;5.63;;
27728;SDS011;15126;42.186;24.340;2022-09-28T15:15:29;7.70;;;5.03;;
27728;SDS011;15126;42.186;24.340;2022-09-28T15:18:10;12.73;;;6.03;;
27728;SDS011;15126;42.186;24.340;2022-09-28T15:20:45;16.70;;;5.90;;
27728;SDS011;15126;42.186;24.340;2022-09-28T15:23:26;15.27;;;5.57;;
27728;SDS011;15126;42.186;24.340;2022-09-28T15:25:59;14.80;;;5.50;;
27728;SDS011;15126;42.186;24.340;2022-09-28T15:28:27;17.43;;;5.77;;
27728;SDS011;15126;42.186;24.340;2022-09-28T15:30:57;7.97;;;5.17;;
27728;SDS011;15126;42.186;24.340;2022-09-28T15:33:25;9.77;;;5.30;;
27728;SDS011;15126;42.186;24.340;2022-09-28T15:36:12;15.90;;;5.30;;
27728;SDS011;15126;42.186;24.340;2022-09-28T15:38:50;11.10;;;5.67;;
27728;SDS011;15126;42.186;24.340;2022-09-28T15:41:20;14.80;;;5.70;;
27728;SDS011;15126;42.186;24.340;2022-09-28T15:44:02;14.03;;;5.43;;
27728;SDS011;15126;42.186;24.340;2022-09-28T15:46:32;12.43;;;5.40;;